Hlavní strana
METAR-TAF:

METAR-TAF

Letiště :

Ponta Delgada, Azory, Portugalsko

zeměpisná šířka: 37-44N, zeměpisná délka: 025-42W, výška: 71 m

Aktuální stav počasí

Zpráva byla vytvořena před 21 minutami, v 00:30 UTC
Severozápadní vítr 4 kt
Teplota 18°C
Vlhkost vzduchu 73%
Tlak 1032 hPa
Viditelnost 10 km a více
Skoro jasno ve výšce 2500 ft
Oblačno až skoro zataženo ve výšce 3500 ft

METAR: LPPD 080030Z 31004KT 9999 FEW025 BKN035 18/13 Q1032

Čas: 23:51 (00:51 UTC)

Předpověď počasí

Zpráva byla vytvořena před 1 hodinou a 51 minutami, v 23:00 UTC
Předpověď platná od 08 v 00 UTC do 08 v 24 UTC
Západoseverozápadní vítr 5 kt
Viditelnost 10 km a více
Skoro jasno ve výšce 2000 ft
Oblačno až skoro zataženo ve výšce 3500 ft
Dočasný
od 08 v 00 UTC do 08 v 06 UTC
vítr z různých směrů 5 kt
Oblačno až skoro zataženo ve výšce 1500 ft
Dočasný
od 08 v 06 UTC do 08 v 24 UTC
Polojasno ve výšce 2000 ft

TAF: LPPD 072300Z 0800/0824 30005KT 9999 FEW020 BKN035 TEMPO 0800/0806 VRB05KT BKN015 TEMPO 0806/0824 SCT020

Stav a předpovědi počasí z více než 4 000 letišť (zprávy METAR a TAF).

Červené a žluté tečky na mapě představují dostupné meteorologické stanice.

Když kurzor umístíte na tečku, zobrazí se název stanice.

Pak kliknutím zobrazíte stav a předpověď počasí.

Chcete-li změnit mapu, kliknutím na zelené tlačítko se znaménkem +mapu přiblížíte, kliknutím na zelené tlačítko se znaménkem – mapu oddálíte a kliknutím na zelené šipky přejdete na sousední mapy.


METAR-TAF: